Terminal Aerodrome Forecast
Issued by NWS St Louis, MO

Home | Current Version | Previous Version | Text Only | Print | Product List | Glossary On
Versions: 1 2 3 4 5 6 7 8 9 10 11 12 13 14 15 16 17 18 19 20 21 22 23 24 25 26 27 28 29 30 31 32 33
525
FTUS43 KLSX 271332 AAA
TAFSTL
TAF AMD
KSTL 271332Z 2714/2818 02007KT 2SM -SHRA SCT030 OVC070
     FM271410 11006KT 5SM -SHRA OVC030
     FM271800 16005KT P6SM OVC030
     FM272200 33004KT 5SM -SHRA VCTS OVC020CB
     FM280000 33008KT P6SM OVC015=

USA.gov is the U.S. government's official web portal to all federal, state and local government web resources and services.